sensor_id;sensor_type;location;lat;lon;timestamp;P1;durP1;ratioP1;P2;durP2;ratioP2
71154;SDS011;59375;53.216;5.728;2022-09-12T00:01:15;13.82;;;12.18;;
71154;SDS011;59375;53.216;5.728;2022-09-12T00:03:43;13.32;;;11.75;;
71154;SDS011;59375;53.216;5.728;2022-09-12T00:06:10;13.73;;;11.73;;
71154;SDS011;59375;53.216;5.728;2022-09-12T00:08:40;14.80;;;12.40;;
71154;SDS011;59375;53.216;5.728;2022-09-12T00:11:06;13.63;;;12.23;;
71154;SDS011;59375;53.216;5.728;2022-09-12T00:13:33;15.27;;;12.57;;
71154;SDS011;59375;53.216;5.728;2022-09-12T00:15:58;14.05;;;12.55;;
71154;SDS011;59375;53.216;5.728;2022-09-12T00:18:25;13.48;;;12.10;;
71154;SDS011;59375;53.216;5.728;2022-09-12T00:20:50;13.60;;;12.20;;
71154;SDS011;59375;53.216;5.728;2022-09-12T00:23:16;15.27;;;13.77;;
71154;SDS011;59375;53.216;5.728;2022-09-12T00:25:45;15.55;;;13.10;;
71154;SDS011;59375;53.216;5.728;2022-09-12T00:28:13;15.63;;;13.57;;
71154;SDS011;59375;53.216;5.728;2022-09-12T00:30:41;14.70;;;13.18;;
71154;SDS011;59375;53.216;5.728;2022-09-12T00:33:07;14.48;;;12.95;;
71154;SDS011;59375;53.216;5.728;2022-09-12T00:35:33;15.13;;;13.52;;
71154;SDS011;59375;53.216;5.728;2022-09-12T00:37:59;15.30;;;13.70;;
71154;SDS011;59375;53.216;5.728;2022-09-12T00:40:24;14.75;;;13.15;;
71154;SDS011;59375;53.216;5.728;2022-09-12T00:42:51;17.38;;;13.98;;
71154;SDS011;59375;53.216;5.728;2022-09-12T00:45:19;15.65;;;13.00;;
71154;SDS011;59375;53.216;5.728;2022-09-12T00:47:51;14.65;;;13.15;;
71154;SDS011;59375;53.216;5.728;2022-09-12T00:50:17;14.95;;;13.35;;
71154;SDS011;59375;53.216;5.728;2022-09-12T00:52:53;15.00;;;13.07;;
71154;SDS011;59375;53.216;5.728;2022-09-12T00:55:28;15.85;;;14.10;;
71154;SDS011;59375;53.216;5.728;2022-09-12T01:00:29;15.70;;;14.10;;
71154;SDS011;59375;53.216;5.728;2022-09-12T01:02:59;16.33;;;14.73;;
71154;SDS011;59375;53.216;5.728;2022-09-12T01:05:30;15.77;;;14.13;;
71154;SDS011;59375;53.216;5.728;2022-09-12T01:08:03;17.00;;;15.10;;
71154;SDS011;59375;53.216;5.728;2022-09-12T01:10:30;16.88;;;15.18;;
71154;SDS011;59375;53.216;5.728;2022-09-12T01:12:58;17.35;;;15.55;;
71154;SDS011;59375;53.216;5.728;2022-09-12T01:15:24;18.02;;;15.38;;
71154;SDS011;59375;53.216;5.728;2022-09-12T01:18:02;16.77;;;14.98;;
71154;SDS011;59375;53.216;5.728;2022-09-12T01:20:43;17.58;;;14.20;;
71154;SDS011;59375;53.216;5.728;2022-09-12T01:37:25;15.55;;;13.65;;
71154;SDS011;59375;53.216;5.728;2022-09-12T01:42:48;16.23;;;14.10;;
71154;SDS011;59375;53.216;5.728;2022-09-12T01:45:27;15.57;;;13.95;;
71154;SDS011;59375;53.216;5.728;2022-09-12T01:50:46;16.00;;;14.38;;
71154;SDS011;59375;53.216;5.728;2022-09-12T01:53:19;16.38;;;13.73;;
71154;SDS011;59375;53.216;5.728;2022-09-12T01:55:51;14.98;;;13.30;;
71154;SDS011;59375;53.216;5.728;2022-09-12T01:58:29;15.93;;;14.23;;
71154;SDS011;59375;53.216;5.728;2022-09-12T02:01:08;16.25;;;14.25;;
71154;SDS011;59375;53.216;5.728;2022-09-12T02:03:40;15.77;;;14.05;;
71154;SDS011;59375;53.216;5.728;2022-09-12T02:06:22;14.95;;;13.13;;
71154;SDS011;59375;53.216;5.728;2022-09-12T02:08:52;15.02;;;13.45;;
71154;SDS011;59375;53.216;5.728;2022-09-12T02:11:22;15.35;;;13.75;;
71154;SDS011;59375;53.216;5.728;2022-09-12T02:16:31;18.15;;;14.07;;
71154;SDS011;59375;53.216;5.728;2022-09-12T02:19:07;15.98;;;13.73;;
71154;SDS011;59375;53.216;5.728;2022-09-12T02:21:40;14.73;;;12.98;;
71154;SDS011;59375;53.216;5.728;2022-09-12T02:24:28;14.60;;;13.10;;
71154;SDS011;59375;53.216;5.728;2022-09-12T02:27:04;15.10;;;13.50;;
71154;SDS011;59375;53.216;5.728;2022-09-12T02:29:41;15.43;;;12.98;;
71154;SDS011;59375;53.216;5.728;2022-09-12T02:32:11;15.70;;;13.95;;
71154;SDS011;59375;53.216;5.728;2022-09-12T02:34:52;14.40;;;12.90;;
71154;SDS011;59375;53.216;5.728;2022-09-12T02:40:00;15.65;;;13.35;;
71154;SDS011;59375;53.216;5.728;2022-09-12T02:42:26;16.65;;;14.02;;
71154;SDS011;59375;53.216;5.728;2022-09-12T02:44:52;15.68;;;14.05;;
71154;SDS011;59375;53.216;5.728;2022-09-12T02:48:06;16.10;;;14.40;;
71154;SDS011;59375;53.216;5.728;2022-09-12T02:50:09;17.45;;;14.07;;
71154;SDS011;59375;53.216;5.728;2022-09-12T02:52:35;15.02;;;13.43;;
71154;SDS011;59375;53.216;5.728;2022-09-12T02:55:02;18.52;;;14.32;;
71154;SDS011;59375;53.216;5.728;2022-09-12T02:57:29;16.55;;;14.15;;
71154;SDS011;59375;53.216;5.728;2022-09-12T02:59:55;15.88;;;14.27;;
71154;SDS011;59375;53.216;5.728;2022-09-12T03:07:45;16.20;;;14.15;;
71154;SDS011;59375;53.216;5.728;2022-09-12T03:13:50;18.55;;;15.07;;
71154;SDS011;59375;53.216;5.728;2022-09-12T03:16:52;16.60;;;14.85;;
71154;SDS011;59375;53.216;5.728;2022-09-12T03:19:31;18.48;;;15.20;;
71154;SDS011;59375;53.216;5.728;2022-09-12T03:22:21;17.88;;;15.52;;
71154;SDS011;59375;53.216;5.728;2022-09-12T03:27:33;17.98;;;15.32;;
71154;SDS011;59375;53.216;5.728;2022-09-12T03:30:03;17.58;;;15.52;;
71154;SDS011;59375;53.216;5.728;2022-09-12T03:32:39;16.98;;;15.23;;
71154;SDS011;59375;53.216;5.728;2022-09-12T03:35:05;19.13;;;15.57;;
71154;SDS011;59375;53.216;5.728;2022-09-12T03:37:31;18.35;;;15.80;;
71154;SDS011;59375;53.216;5.728;2022-09-12T03:39:56;18.40;;;15.40;;
71154;SDS011;59375;53.216;5.728;2022-09-12T03:42:22;18.73;;;16.27;;
71154;SDS011;59375;53.216;5.728;2022-09-12T03:44:47;19.38;;;16.05;;
71154;SDS011;59375;53.216;5.728;2022-09-12T03:47:12;18.85;;;16.13;;
71154;SDS011;59375;53.216;5.728;2022-09-12T03:49:38;19.58;;;16.70;;
71154;SDS011;59375;53.216;5.728;2022-09-12T03:52:04;18.50;;;16.45;;
71154;SDS011;59375;53.216;5.728;2022-09-12T03:54:29;18.10;;;16.00;;
71154;SDS011;59375;53.216;5.728;2022-09-12T03:56:55;20.55;;;16.65;;
71154;SDS011;59375;53.216;5.728;2022-09-12T03:59:20;19.13;;;16.90;;
71154;SDS011;59375;53.216;5.728;2022-09-12T04:01:46;21.17;;;17.58;;
71154;SDS011;59375;53.216;5.728;2022-09-12T04:04:11;19.77;;;16.65;;
71154;SDS011;59375;53.216;5.728;2022-09-12T04:06:37;20.95;;;17.10;;
71154;SDS011;59375;53.216;5.728;2022-09-12T04:09:02;20.55;;;17.33;;
71154;SDS011;59375;53.216;5.728;2022-09-12T04:11:28;19.17;;;17.05;;
71154;SDS011;59375;53.216;5.728;2022-09-12T04:13:53;19.38;;;16.85;;
71154;SDS011;59375;53.216;5.728;2022-09-12T04:16:19;19.05;;;16.65;;
71154;SDS011;59375;53.216;5.728;2022-09-12T04:18:45;20.23;;;17.55;;
71154;SDS011;59375;53.216;5.728;2022-09-12T04:21:12;21.40;;;17.70;;
71154;SDS011;59375;53.216;5.728;2022-09-12T04:23:40;21.80;;;17.92;;
71154;SDS011;59375;53.216;5.728;2022-09-12T04:26:06;21.40;;;17.20;;
71154;SDS011;59375;53.216;5.728;2022-09-12T04:28:32;20.05;;;17.05;;
71154;SDS011;59375;53.216;5.728;2022-09-12T04:31:17;20.27;;;17.27;;
71154;SDS011;59375;53.216;5.728;2022-09-12T04:33:44;20.48;;;17.02;;
71154;SDS011;59375;53.216;5.728;2022-09-12T04:36:11;21.38;;;18.10;;
71154;SDS011;59375;53.216;5.728;2022-09-12T04:38:41;19.92;;;16.58;;
71154;SDS011;59375;53.216;5.728;2022-09-12T04:41:15;20.15;;;17.70;;
71154;SDS011;59375;53.216;5.728;2022-09-12T04:43:43;22.77;;;17.95;;
71154;SDS011;59375;53.216;5.728;2022-09-12T04:46:13;21.92;;;18.20;;
71154;SDS011;59375;53.216;5.728;2022-09-12T04:48:40;24.40;;;18.75;;
71154;SDS011;59375;53.216;5.728;2022-09-12T04:51:26;21.25;;;18.33;;
71154;SDS011;59375;53.216;5.728;2022-09-12T04:53:57;22.83;;;18.10;;
71154;SDS011;59375;53.216;5.728;2022-09-12T04:56:25;21.48;;;17.30;;
71154;SDS011;59375;53.216;5.728;2022-09-12T04:58:51;23.88;;;18.08;;
71154;SDS011;59375;53.216;5.728;2022-09-12T05:01:18;22.33;;;18.08;;
71154;SDS011;59375;53.216;5.728;2022-09-12T05:03:45;21.77;;;17.95;;
71154;SDS011;59375;53.216;5.728;2022-09-12T05:06:16;24.63;;;19.50;;
71154;SDS011;59375;53.216;5.728;2022-09-12T05:08:44;25.48;;;19.17;;
71154;SDS011;59375;53.216;5.728;2022-09-12T05:11:11;22.70;;;18.92;;
71154;SDS011;59375;53.216;5.728;2022-09-12T05:13:41;22.92;;;19.58;;
71154;SDS011;59375;53.216;5.728;2022-09-12T05:16:08;22.88;;;18.50;;
71154;SDS011;59375;53.216;5.728;2022-09-12T05:18:35;22.27;;;18.98;;
71154;SDS011;59375;53.216;5.728;2022-09-12T05:21:02;22.05;;;19.15;;
71154;SDS011;59375;53.216;5.728;2022-09-12T05:23:30;24.90;;;19.45;;
71154;SDS011;59375;53.216;5.728;2022-09-12T05:25:57;21.38;;;18.58;;
71154;SDS011;59375;53.216;5.728;2022-09-12T05:28:24;20.77;;;18.08;;
71154;SDS011;59375;53.216;5.728;2022-09-12T05:33:30;22.35;;;18.80;;
71154;SDS011;59375;53.216;5.728;2022-09-12T05:35:56;22.40;;;19.30;;
71154;SDS011;59375;53.216;5.728;2022-09-12T05:38:21;21.23;;;17.98;;
71154;SDS011;59375;53.216;5.728;2022-09-12T05:40:52;23.42;;;18.95;;
71154;SDS011;59375;53.216;5.728;2022-09-12T05:43:18;21.95;;;18.35;;
71154;SDS011;59375;53.216;5.728;2022-09-12T05:45:44;22.40;;;18.25;;
71154;SDS011;59375;53.216;5.728;2022-09-12T05:48:10;21.25;;;18.20;;
71154;SDS011;59375;53.216;5.728;2022-09-12T05:50:35;22.00;;;18.30;;
71154;SDS011;59375;53.216;5.728;2022-09-12T05:53:01;23.15;;;18.27;;
71154;SDS011;59375;53.216;5.728;2022-09-12T05:55:26;22.65;;;19.60;;
71154;SDS011;59375;53.216;5.728;2022-09-12T05:57:52;21.92;;;18.42;;
71154;SDS011;59375;53.216;5.728;2022-09-12T06:00:18;21.25;;;18.33;;
71154;SDS011;59375;53.216;5.728;2022-09-12T06:02:44;20.95;;;17.50;;
71154;SDS011;59375;53.216;5.728;2022-09-12T06:05:16;21.55;;;18.30;;
71154;SDS011;59375;53.216;5.728;2022-09-12T06:07:44;22.77;;;18.00;;
71154;SDS011;59375;53.216;5.728;2022-09-12T06:10:10;20.95;;;18.20;;
71154;SDS011;59375;53.216;5.728;2022-09-12T06:12:36;24.52;;;18.60;;
71154;SDS011;59375;53.216;5.728;2022-09-12T06:15:01;22.83;;;18.58;;
71154;SDS011;59375;53.216;5.728;2022-09-12T06:17:27;20.42;;;17.45;;
71154;SDS011;59375;53.216;5.728;2022-09-12T06:19:53;22.23;;;18.63;;
71154;SDS011;59375;53.216;5.728;2022-09-12T06:22:19;23.83;;;18.58;;
71154;SDS011;59375;53.216;5.728;2022-09-12T06:24:45;22.08;;;18.15;;
71154;SDS011;59375;53.216;5.728;2022-09-12T06:27:10;22.27;;;18.90;;
71154;SDS011;59375;53.216;5.728;2022-09-12T06:29:36;23.20;;;18.42;;
71154;SDS011;59375;53.216;5.728;2022-09-12T06:32:01;22.52;;;18.42;;
71154;SDS011;59375;53.216;5.728;2022-09-12T06:34:27;21.23;;;18.42;;
71154;SDS011;59375;53.216;5.728;2022-09-12T06:36:52;24.90;;;18.58;;
71154;SDS011;59375;53.216;5.728;2022-09-12T06:39:19;22.05;;;19.00;;
71154;SDS011;59375;53.216;5.728;2022-09-12T06:41:46;22.88;;;18.85;;
71154;SDS011;59375;53.216;5.728;2022-09-12T06:44:16;22.80;;;18.92;;
71154;SDS011;59375;53.216;5.728;2022-09-12T06:46:44;20.50;;;18.30;;
71154;SDS011;59375;53.216;5.728;2022-09-12T06:49:10;21.58;;;18.08;;
71154;SDS011;59375;53.216;5.728;2022-09-12T06:51:35;23.10;;;17.42;;
71154;SDS011;59375;53.216;5.728;2022-09-12T06:54:02;23.00;;;18.27;;
71154;SDS011;59375;53.216;5.728;2022-09-12T06:56:29;21.95;;;18.45;;
71154;SDS011;59375;53.216;5.728;2022-09-12T06:58:56;22.55;;;18.42;;
71154;SDS011;59375;53.216;5.728;2022-09-12T07:01:24;23.00;;;18.88;;
71154;SDS011;59375;53.216;5.728;2022-09-12T07:03:55;22.35;;;18.25;;
71154;SDS011;59375;53.216;5.728;2022-09-12T07:06:23;20.58;;;18.20;;
71154;SDS011;59375;53.216;5.728;2022-09-12T07:08:55;20.60;;;17.77;;
71154;SDS011;59375;53.216;5.728;2022-09-12T07:11:24;21.58;;;17.58;;
71154;SDS011;59375;53.216;5.728;2022-09-12T07:13:51;20.02;;;17.80;;
71154;SDS011;59375;53.216;5.728;2022-09-12T07:16:18;21.05;;;17.13;;
71154;SDS011;59375;53.216;5.728;2022-09-12T07:18:44;22.20;;;18.33;;
71154;SDS011;59375;53.216;5.728;2022-09-12T07:21:14;19.88;;;17.40;;
71154;SDS011;59375;53.216;5.728;2022-09-12T07:23:40;22.50;;;18.42;;
71154;SDS011;59375;53.216;5.728;2022-09-12T07:26:06;23.63;;;18.25;;
71154;SDS011;59375;53.216;5.728;2022-09-12T07:28:34;20.98;;;17.65;;
71154;SDS011;59375;53.216;5.728;2022-09-12T07:31:10;21.00;;;17.80;;
71154;SDS011;59375;53.216;5.728;2022-09-12T07:33:40;23.45;;;17.98;;
71154;SDS011;59375;53.216;5.728;2022-09-12T07:36:07;21.25;;;18.38;;
71154;SDS011;59375;53.216;5.728;2022-09-12T07:38:36;22.73;;;18.60;;
71154;SDS011;59375;53.216;5.728;2022-09-12T07:41:09;21.35;;;18.15;;
71154;SDS011;59375;53.216;5.728;2022-09-12T07:43:42;25.75;;;19.40;;
71154;SDS011;59375;53.216;5.728;2022-09-12T07:46:08;22.60;;;19.67;;
71154;SDS011;59375;53.216;5.728;2022-09-12T07:48:34;25.05;;;19.38;;
71154;SDS011;59375;53.216;5.728;2022-09-12T07:51:00;21.98;;;19.10;;
71154;SDS011;59375;53.216;5.728;2022-09-12T07:53:32;23.92;;;19.92;;
71154;SDS011;59375;53.216;5.728;2022-09-12T07:55:59;25.65;;;20.80;;
71154;SDS011;59375;53.216;5.728;2022-09-12T07:58:27;27.67;;;20.63;;
71154;SDS011;59375;53.216;5.728;2022-09-12T08:00:53;25.98;;;20.48;;
71154;SDS011;59375;53.216;5.728;2022-09-12T08:03:19;27.60;;;22.05;;
71154;SDS011;59375;53.216;5.728;2022-09-12T08:05:44;27.42;;;22.88;;
71154;SDS011;59375;53.216;5.728;2022-09-12T08:08:10;26.23;;;22.25;;
71154;SDS011;59375;53.216;5.728;2022-09-12T08:10:36;28.38;;;22.50;;
71154;SDS011;59375;53.216;5.728;2022-09-12T08:13:01;28.75;;;22.20;;
71154;SDS011;59375;53.216;5.728;2022-09-12T08:15:27;28.65;;;22.48;;
71154;SDS011;59375;53.216;5.728;2022-09-12T08:17:53;29.27;;;22.92;;
71154;SDS011;59375;53.216;5.728;2022-09-12T08:20:19;28.00;;;22.75;;
71154;SDS011;59375;53.216;5.728;2022-09-12T08:22:44;29.73;;;23.67;;
71154;SDS011;59375;53.216;5.728;2022-09-12T08:25:10;26.17;;;21.27;;
71154;SDS011;59375;53.216;5.728;2022-09-12T08:27:35;29.67;;;21.13;;
71154;SDS011;59375;53.216;5.728;2022-09-12T08:30:01;25.88;;;22.17;;
71154;SDS011;59375;53.216;5.728;2022-09-12T08:32:29;28.02;;;21.60;;
71154;SDS011;59375;53.216;5.728;2022-09-12T08:34:54;27.30;;;22.25;;
71154;SDS011;59375;53.216;5.728;2022-09-12T08:37:20;31.13;;;23.60;;
71154;SDS011;59375;53.216;5.728;2022-09-12T08:39:45;29.67;;;22.75;;
71154;SDS011;59375;53.216;5.728;2022-09-12T08:42:15;26.30;;;20.88;;
71154;SDS011;59375;53.216;5.728;2022-09-12T08:45:18;29.40;;;22.45;;
71154;SDS011;59375;53.216;5.728;2022-09-12T08:47:52;31.00;;;23.02;;
71154;SDS011;59375;53.216;5.728;2022-09-12T08:50:20;29.67;;;22.77;;
71154;SDS011;59375;53.216;5.728;2022-09-12T08:53:03;30.88;;;21.10;;
71154;SDS011;59375;53.216;5.728;2022-09-12T08:55:43;30.75;;;24.15;;
71154;SDS011;59375;53.216;5.728;2022-09-12T08:58:14;28.17;;;20.13;;
71154;SDS011;59375;53.216;5.728;2022-09-12T09:00:45;29.70;;;22.48;;
71154;SDS011;59375;53.216;5.728;2022-09-12T09:12:05;28.38;;;21.02;;
71154;SDS011;59375;53.216;5.728;2022-09-12T09:14:54;27.77;;;18.80;;
71154;SDS011;59375;53.216;5.728;2022-09-12T09:17:46;23.85;;;18.25;;
71154;SDS011;59375;53.216;5.728;2022-09-12T09:20:26;23.40;;;17.33;;
71154;SDS011;59375;53.216;5.728;2022-09-12T09:23:07;23.60;;;18.25;;
71154;SDS011;59375;53.216;5.728;2022-09-12T09:25:43;26.02;;;18.60;;
71154;SDS011;59375;53.216;5.728;2022-09-12T09:28:22;25.13;;;18.52;;
71154;SDS011;59375;53.216;5.728;2022-09-12T09:30:50;26.02;;;20.85;;
71154;SDS011;59375;53.216;5.728;2022-09-12T09:33:27;29.63;;;21.63;;
71154;SDS011;59375;53.216;5.728;2022-09-12T09:38:48;28.00;;;21.02;;
71154;SDS011;59375;53.216;5.728;2022-09-12T09:43:50;25.88;;;19.50;;
71154;SDS011;59375;53.216;5.728;2022-09-12T09:46:15;28.05;;;20.98;;
71154;SDS011;59375;53.216;5.728;2022-09-12T09:48:45;23.38;;;17.95;;
71154;SDS011;59375;53.216;5.728;2022-09-12T09:51:14;26.55;;;18.83;;
71154;SDS011;59375;53.216;5.728;2022-09-12T09:53:50;22.27;;;17.80;;
71154;SDS011;59375;53.216;5.728;2022-09-12T09:56:37;22.60;;;16.60;;
71154;SDS011;59375;53.216;5.728;2022-09-12T10:01:53;25.17;;;16.50;;
71154;SDS011;59375;53.216;5.728;2022-09-12T10:04:32;21.58;;;15.50;;
71154;SDS011;59375;53.216;5.728;2022-09-12T10:07:00;21.33;;;16.10;;
71154;SDS011;59375;53.216;5.728;2022-09-12T10:09:29;21.77;;;15.98;;
71154;SDS011;59375;53.216;5.728;2022-09-12T10:12:00;22.80;;;15.32;;
71154;SDS011;59375;53.216;5.728;2022-09-12T10:14:43;21.13;;;16.02;;
71154;SDS011;59375;53.216;5.728;2022-09-12T10:17:43;20.70;;;14.85;;
71154;SDS011;59375;53.216;5.728;2022-09-12T10:25:51;16.70;;;12.35;;
71154;SDS011;59375;53.216;5.728;2022-09-12T10:28:24;17.95;;;13.68;;
71154;SDS011;59375;53.216;5.728;2022-09-12T10:31:08;17.80;;;12.50;;
71154;SDS011;59375;53.216;5.728;2022-09-12T10:33:41;16.55;;;11.93;;
71154;SDS011;59375;53.216;5.728;2022-09-12T10:36:09;15.90;;;11.32;;
71154;SDS011;59375;53.216;5.728;2022-09-12T10:38:35;16.23;;;11.38;;
71154;SDS011;59375;53.216;5.728;2022-09-12T10:41:07;15.20;;;10.80;;
71154;SDS011;59375;53.216;5.728;2022-09-12T10:43:35;14.52;;;10.23;;
71154;SDS011;59375;53.216;5.728;2022-09-12T10:46:26;15.95;;;11.43;;
71154;SDS011;59375;53.216;5.728;2022-09-12T10:49:11;10.15;;;8.27;;
71154;SDS011;59375;53.216;5.728;2022-09-12T10:51:36;14.15;;;9.95;;
71154;SDS011;59375;53.216;5.728;2022-09-12T10:54:03;13.35;;;9.18;;
71154;SDS011;59375;53.216;5.728;2022-09-12T10:56:34;14.20;;;9.80;;
71154;SDS011;59375;53.216;5.728;2022-09-12T11:10:33;12.80;;;10.40;;
71154;SDS011;59375;53.216;5.728;2022-09-12T11:15:48;9.77;;;7.40;;
71154;SDS011;59375;53.216;5.728;2022-09-12T11:23:46;8.30;;;6.75;;
71154;SDS011;59375;53.216;5.728;2022-09-12T11:26:58;11.30;;;7.82;;
71154;SDS011;59375;53.216;5.728;2022-09-12T11:29:47;9.88;;;8.07;;
71154;SDS011;59375;53.216;5.728;2022-09-12T11:40:31;9.05;;;6.55;;
71154;SDS011;59375;53.216;5.728;2022-09-12T11:46:17;8.02;;;6.30;;
71154;SDS011;59375;53.216;5.728;2022-09-12T11:48:54;10.02;;;7.55;;
71154;SDS011;59375;53.216;5.728;2022-09-12T11:51:26;9.32;;;6.82;;
71154;SDS011;59375;53.216;5.728;2022-09-12T11:54:02;10.15;;;6.82;;
71154;SDS011;59375;53.216;5.728;2022-09-12T11:56:39;9.23;;;7.20;;
71154;SDS011;59375;53.216;5.728;2022-09-12T11:59:31;10.23;;;7.63;;
71154;SDS011;59375;53.216;5.728;2022-09-12T12:02:03;9.32;;;7.65;;
71154;SDS011;59375;53.216;5.728;2022-09-12T12:04:38;8.68;;;7.03;;
71154;SDS011;59375;53.216;5.728;2022-09-12T12:07:09;12.07;;;8.30;;
71154;SDS011;59375;53.216;5.728;2022-09-12T12:09:43;10.88;;;7.13;;
71154;SDS011;59375;53.216;5.728;2022-09-12T12:12:13;12.13;;;8.68;;
71154;SDS011;59375;53.216;5.728;2022-09-12T12:14:43;11.73;;;8.38;;
71154;SDS011;59375;53.216;5.728;2022-09-12T12:17:15;10.73;;;7.50;;
71154;SDS011;59375;53.216;5.728;2022-09-12T12:19:44;11.65;;;8.63;;
71154;SDS011;59375;53.216;5.728;2022-09-12T12:22:17;11.07;;;8.73;;
71154;SDS011;59375;53.216;5.728;2022-09-12T12:24:58;10.82;;;8.27;;
71154;SDS011;59375;53.216;5.728;2022-09-12T12:27:58;10.82;;;7.68;;
71154;SDS011;59375;53.216;5.728;2022-09-12T12:38:04;12.63;;;7.50;;
71154;SDS011;59375;53.216;5.728;2022-09-12T12:40:53;11.43;;;6.43;;
71154;SDS011;59375;53.216;5.728;2022-09-12T12:43:42;8.38;;;5.97;;
71154;SDS011;59375;53.216;5.728;2022-09-12T12:46:12;7.90;;;5.75;;
71154;SDS011;59375;53.216;5.728;2022-09-12T12:53:57;9.80;;;6.28;;
71154;SDS011;59375;53.216;5.728;2022-09-12T12:56:29;8.20;;;5.43;;
71154;SDS011;59375;53.216;5.728;2022-09-12T12:59:43;9.20;;;6.30;;
71154;SDS011;59375;53.216;5.728;2022-09-12T13:01:56;8.95;;;6.60;;
71154;SDS011;59375;53.216;5.728;2022-09-12T13:04:25;8.15;;;6.35;;
71154;SDS011;59375;53.216;5.728;2022-09-12T13:06:58;8.77;;;6.47;;
71154;SDS011;59375;53.216;5.728;2022-09-12T13:09:29;8.32;;;5.28;;
71154;SDS011;59375;53.216;5.728;2022-09-12T13:12:06;6.47;;;4.80;;
71154;SDS011;59375;53.216;5.728;2022-09-12T13:17:16;7.10;;;4.63;;
71154;SDS011;59375;53.216;5.728;2022-09-12T13:20:03;7.18;;;4.93;;
71154;SDS011;59375;53.216;5.728;2022-09-12T13:22:47;6.63;;;4.43;;
71154;SDS011;59375;53.216;5.728;2022-09-12T13:30:41;6.93;;;5.15;;
71154;SDS011;59375;53.216;5.728;2022-09-12T13:36:01;8.13;;;5.63;;
71154;SDS011;59375;53.216;5.728;2022-09-12T13:38:43;7.47;;;5.93;;
71154;SDS011;59375;53.216;5.728;2022-09-12T13:44:08;7.60;;;6.18;;
71154;SDS011;59375;53.216;5.728;2022-09-12T13:46:37;8.80;;;6.73;;
71154;SDS011;59375;53.216;5.728;2022-09-12T13:49:14;11.60;;;7.55;;
71154;SDS011;59375;53.216;5.728;2022-09-12T13:52:02;9.82;;;6.75;;
71154;SDS011;59375;53.216;5.728;2022-09-12T13:54:29;9.20;;;7.30;;
71154;SDS011;59375;53.216;5.728;2022-09-12T13:56:56;8.82;;;6.45;;
71154;SDS011;59375;53.216;5.728;2022-09-12T13:59:23;9.75;;;6.93;;
71154;SDS011;59375;53.216;5.728;2022-09-12T14:01:49;8.98;;;6.90;;
71154;SDS011;59375;53.216;5.728;2022-09-12T14:04:19;9.23;;;7.00;;
71154;SDS011;59375;53.216;5.728;2022-09-12T14:07:10;12.10;;;6.85;;
71154;SDS011;59375;53.216;5.728;2022-09-12T14:09:45;10.07;;;7.00;;
71154;SDS011;59375;53.216;5.728;2022-09-12T14:12:20;11.60;;;6.78;;
71154;SDS011;59375;53.216;5.728;2022-09-12T14:14:56;8.02;;;6.40;;
71154;SDS011;59375;53.216;5.728;2022-09-12T14:17:35;8.32;;;6.00;;
71154;SDS011;59375;53.216;5.728;2022-09-12T14:20:13;13.95;;;6.47;;
71154;SDS011;59375;53.216;5.728;2022-09-12T14:22:42;8.88;;;6.57;;
71154;SDS011;59375;53.216;5.728;2022-09-12T14:25:21;9.40;;;7.07;;
71154;SDS011;59375;53.216;5.728;2022-09-12T14:27:54;8.63;;;6.70;;
71154;SDS011;59375;53.216;5.728;2022-09-12T14:40:43;8.07;;;6.30;;
71154;SDS011;59375;53.216;5.728;2022-09-12T14:43:31;9.20;;;6.60;;
71154;SDS011;59375;53.216;5.728;2022-09-12T14:46:02;11.30;;;7.30;;
71154;SDS011;59375;53.216;5.728;2022-09-12T14:48:33;9.73;;;7.30;;
71154;SDS011;59375;53.216;5.728;2022-09-12T14:51:01;11.43;;;9.00;;
71154;SDS011;59375;53.216;5.728;2022-09-12T14:53:32;11.77;;;8.15;;
71154;SDS011;59375;53.216;5.728;2022-09-12T14:56:07;9.48;;;6.38;;
71154;SDS011;59375;53.216;5.728;2022-09-12T14:58:34;9.50;;;7.15;;
71154;SDS011;59375;53.216;5.728;2022-09-12T15:06:17;8.68;;;7.13;;
71154;SDS011;59375;53.216;5.728;2022-09-12T15:08:56;9.07;;;7.35;;
71154;SDS011;59375;53.216;5.728;2022-09-12T15:11:24;9.50;;;7.15;;
71154;SDS011;59375;53.216;5.728;2022-09-12T15:13:50;10.65;;;7.40;;
71154;SDS011;59375;53.216;5.728;2022-09-12T15:16:15;10.35;;;7.40;;
71154;SDS011;59375;53.216;5.728;2022-09-12T15:18:41;10.07;;;7.50;;
71154;SDS011;59375;53.216;5.728;2022-09-12T15:21:09;9.25;;;7.40;;
71154;SDS011;59375;53.216;5.728;2022-09-12T15:23:47;9.48;;;6.55;;
71154;SDS011;59375;53.216;5.728;2022-09-12T15:26:17;10.55;;;8.48;;
71154;SDS011;59375;53.216;5.728;2022-09-12T15:28:44;10.75;;;8.55;;
71154;SDS011;59375;53.216;5.728;2022-09-12T15:31:11;13.65;;;8.65;;
71154;SDS011;59375;53.216;5.728;2022-09-12T15:33:37;9.27;;;7.30;;
71154;SDS011;59375;53.216;5.728;2022-09-12T15:36:04;9.60;;;6.80;;
71154;SDS011;59375;53.216;5.728;2022-09-12T15:38:37;8.88;;;7.60;;
71154;SDS011;59375;53.216;5.728;2022-09-12T15:41:02;10.55;;;7.10;;
71154;SDS011;59375;53.216;5.728;2022-09-12T15:43:32;10.75;;;7.68;;
71154;SDS011;59375;53.216;5.728;2022-09-12T15:45:58;10.57;;;7.70;;
71154;SDS011;59375;53.216;5.728;2022-09-12T15:48:28;9.85;;;8.23;;
71154;SDS011;59375;53.216;5.728;2022-09-12T15:50:53;8.45;;;6.93;;
71154;SDS011;59375;53.216;5.728;2022-09-12T15:53:21;9.77;;;7.63;;
71154;SDS011;59375;53.216;5.728;2022-09-12T15:55:47;8.80;;;7.60;;
71154;SDS011;59375;53.216;5.728;2022-09-12T15:58:12;10.85;;;7.75;;
71154;SDS011;59375;53.216;5.728;2022-09-12T16:00:38;10.70;;;8.00;;
71154;SDS011;59375;53.216;5.728;2022-09-12T16:03:04;8.95;;;7.80;;
71154;SDS011;59375;53.216;5.728;2022-09-12T16:05:29;11.43;;;8.93;;
71154;SDS011;59375;53.216;5.728;2022-09-12T16:07:55;10.02;;;7.95;;
71154;SDS011;59375;53.216;5.728;2022-09-12T16:10:22;10.60;;;7.80;;
71154;SDS011;59375;53.216;5.728;2022-09-12T16:12:49;11.02;;;8.10;;
71154;SDS011;59375;53.216;5.728;2022-09-12T16:15:17;10.10;;;8.00;;
71154;SDS011;59375;53.216;5.728;2022-09-12T16:17:44;10.80;;;8.57;;
71154;SDS011;59375;53.216;5.728;2022-09-12T16:20:09;9.70;;;6.72;;
71154;SDS011;59375;53.216;5.728;2022-09-12T16:22:36;10.30;;;7.22;;
71154;SDS011;59375;53.216;5.728;2022-09-12T16:25:01;8.23;;;6.30;;
71154;SDS011;59375;53.216;5.728;2022-09-12T16:27:27;11.30;;;6.50;;
71154;SDS011;59375;53.216;5.728;2022-09-12T16:29:53;8.85;;;7.10;;
71154;SDS011;59375;53.216;5.728;2022-09-12T16:32:19;9.77;;;7.88;;
71154;SDS011;59375;53.216;5.728;2022-09-12T16:34:44;9.38;;;7.50;;
71154;SDS011;59375;53.216;5.728;2022-09-12T16:37:10;9.95;;;7.80;;
71154;SDS011;59375;53.216;5.728;2022-09-12T16:39:35;11.70;;;8.38;;
71154;SDS011;59375;53.216;5.728;2022-09-12T16:42:01;11.25;;;8.32;;
71154;SDS011;59375;53.216;5.728;2022-09-12T16:44:27;9.95;;;8.07;;
71154;SDS011;59375;53.216;5.728;2022-09-12T16:46:52;9.00;;;7.82;;
71154;SDS011;59375;53.216;5.728;2022-09-12T16:49:18;9.40;;;7.68;;
71154;SDS011;59375;53.216;5.728;2022-09-12T16:51:43;10.55;;;7.93;;
71154;SDS011;59375;53.216;5.728;2022-09-12T16:54:11;9.60;;;7.97;;
71154;SDS011;59375;53.216;5.728;2022-09-12T16:56:38;9.05;;;7.55;;
71154;SDS011;59375;53.216;5.728;2022-09-12T16:59:04;9.57;;;7.80;;
71154;SDS011;59375;53.216;5.728;2022-09-12T17:01:30;9.20;;;8.18;;
71154;SDS011;59375;53.216;5.728;2022-09-12T17:03:58;9.82;;;8.50;;
71154;SDS011;59375;53.216;5.728;2022-09-12T17:06:24;11.57;;;9.13;;